createdAt,value
2022-11-05T00:00:51.232Z,0.00
2022-11-05T00:01:51.212Z,0.00
2022-11-05T00:02:51.095Z,0.00
2022-11-05T00:03:51.174Z,0.00
2022-11-05T00:04:50.979Z,0.00
2022-11-05T00:05:51.006Z,0.00
2022-11-05T00:06:50.869Z,0.00
2022-11-05T00:07:50.805Z,0.00
2022-11-05T00:08:50.705Z,0.00
2022-11-05T00:09:50.656Z,0.00
2022-11-05T00:10:50.568Z,0.00
2022-11-05T00:11:50.526Z,0.00
2022-11-05T00:12:50.447Z,0.00
2022-11-05T00:13:50.388Z,0.00
2022-11-05T00:14:50.334Z,0.00
2022-11-05T00:15:50.233Z,0.00
2022-11-05T00:16:50.171Z,0.00
2022-11-05T00:17:50.129Z,0.00
2022-11-05T00:18:50.074Z,0.00
2022-11-05T00:19:50.043Z,0.00
2022-11-05T00:20:49.929Z,0.00
2022-11-05T00:21:49.878Z,0.00
2022-11-05T00:22:49.802Z,0.00
2022-11-05T00:23:49.710Z,0.00
2022-11-05T00:24:49.663Z,0.00
2022-11-05T00:25:49.584Z,0.00
2022-11-05T00:26:49.541Z,0.00
2022-11-05T00:27:49.547Z,0.00
2022-11-05T00:28:49.395Z,0.00
2022-11-05T00:29:49.309Z,0.00
2022-11-05T00:30:49.267Z,0.00
2022-11-05T00:31:49.278Z,0.00
2022-11-05T00:32:49.122Z,0.00
2022-11-05T00:33:49.072Z,0.00
2022-11-05T00:34:48.981Z,0.00
2022-11-05T00:35:48.948Z,0.00
2022-11-05T00:36:48.847Z,0.00
2022-11-05T00:37:50.411Z,0.00
2022-11-05T00:38:48.732Z,0.00
2022-11-05T00:39:48.667Z,0.00
2022-11-05T00:40:48.651Z,0.00
2022-11-05T00:41:48.559Z,0.00
2022-11-05T00:42:48.483Z,0.00
2022-11-05T00:43:48.399Z,0.00
2022-11-05T00:44:48.323Z,0.00
2022-11-05T00:45:48.270Z,0.00
2022-11-05T00:46:48.198Z,0.00
2022-11-05T00:47:48.176Z,0.00
2022-11-05T00:48:48.066Z,0.00
2022-11-05T00:49:48.022Z,0.00
2022-11-05T00:50:47.956Z,0.00
2022-11-05T00:51:47.863Z,0.00
2022-11-05T00:52:47.894Z,0.00
2022-11-05T00:53:47.805Z,0.00
2022-11-05T00:54:47.676Z,0.00
2022-11-05T00:55:47.618Z,0.00
2022-11-05T00:56:47.559Z,0.00
2022-11-05T00:57:47.493Z,0.00
2022-11-05T00:58:47.431Z,0.00
2022-11-05T00:59:47.626Z,0.00
2022-11-05T01:00:47.275Z,0.00
2022-11-05T01:01:47.358Z,0.00
2022-11-05T01:02:47.209Z,0.00
2022-11-05T01:03:51.430Z,0.00
2022-11-05T01:04:47.018Z,0.00
2022-11-05T01:05:46.979Z,0.00
2022-11-05T01:06:46.872Z,0.00
2022-11-05T01:07:46.831Z,0.00
2022-11-05T01:08:46.779Z,0.00
2022-11-05T01:09:46.687Z,0.00
2022-11-05T01:10:46.633Z,0.00
2022-11-05T01:11:46.541Z,0.00
2022-11-05T01:12:46.493Z,0.00
2022-11-05T01:13:46.431Z,0.00
2022-11-05T01:14:46.347Z,0.00
2022-11-05T01:15:46.338Z,0.00
2022-11-05T01:16:46.245Z,0.00
2022-11-05T01:17:46.166Z,0.00
2022-11-05T01:18:46.115Z,0.00
2022-11-05T01:19:46.022Z,0.00
2022-11-05T01:20:45.954Z,0.00
2022-11-05T01:21:45.893Z,0.00
2022-11-05T01:22:45.850Z,0.00
2022-11-05T01:23:45.772Z,0.00
2022-11-05T01:24:45.717Z,0.00
2022-11-05T01:25:45.637Z,0.00
2022-11-05T01:26:45.565Z,0.00
2022-11-05T01:27:45.517Z,0.00
2022-11-05T01:28:45.507Z,0.00
2022-11-05T01:29:45.376Z,0.00
2022-11-05T01:30:45.306Z,0.00
2022-11-05T01:31:45.238Z,0.00
2022-11-05T01:32:45.198Z,0.00
2022-11-05T01:33:45.101Z,0.00
2022-11-05T01:34:45.035Z,0.00
2022-11-05T01:35:44.972Z,0.00
2022-11-05T01:36:44.907Z,0.00
2022-11-05T01:37:44.851Z,0.00
2022-11-05T01:38:44.771Z,0.00
2022-11-05T01:39:44.711Z,0.00
2022-11-05T01:40:44.657Z,0.00
2022-11-05T01:41:44.597Z,0.00
2022-11-05T01:42:44.513Z,0.00
2022-11-05T01:43:44.441Z,0.00
2022-11-05T01:44:44.419Z,0.00
2022-11-05T01:45:44.319Z,0.00
2022-11-05T01:46:44.251Z,0.00
2022-11-05T01:47:44.176Z,0.00
2022-11-05T01:48:44.119Z,0.00
2022-11-05T01:49:44.058Z,0.00
2022-11-05T01:50:43.982Z,0.00
2022-11-05T01:51:43.962Z,0.00
2022-11-05T01:52:43.866Z,0.00
2022-11-05T01:53:43.787Z,0.00
2022-11-05T01:54:43.723Z,0.00
2022-11-05T01:55:43.661Z,0.00
2022-11-05T01:56:43.588Z,0.00
2022-11-05T01:57:43.544Z,0.00
2022-11-05T01:58:43.464Z,0.00
2022-11-05T01:59:43.406Z,0.00
2022-11-05T02:00:43.406Z,0.00
2022-11-05T02:01:43.451Z,0.00
2022-11-05T02:02:43.341Z,0.00
2022-11-05T02:03:43.155Z,0.00
2022-11-05T02:04:43.070Z,0.00
2022-11-05T02:05:43.006Z,0.00
2022-11-05T02:06:42.938Z,0.00
2022-11-05T02:07:42.865Z,0.00
2022-11-05T02:08:42.805Z,0.00
2022-11-05T02:09:42.741Z,0.00
2022-11-05T02:10:42.695Z,0.00
2022-11-05T02:11:42.659Z,0.00
2022-11-05T02:12:42.594Z,0.00
2022-11-05T02:13:42.475Z,0.00
2022-11-05T02:14:42.423Z,0.00
2022-11-05T02:15:42.369Z,0.00
2022-11-05T02:16:42.277Z,0.00
2022-11-05T02:17:42.219Z,0.00
2022-11-05T02:18:42.198Z,0.00
2022-11-05T02:19:42.105Z,0.00
2022-11-05T02:20:42.057Z,0.00
2022-11-05T02:21:41.957Z,0.00
2022-11-05T02:22:41.911Z,0.00
2022-11-05T02:23:41.829Z,0.00
2022-11-05T02:24:41.782Z,0.00
2022-11-05T02:25:41.680Z,0.00
2022-11-05T02:26:41.632Z,0.00
2022-11-05T02:27:41.647Z,0.00
2022-11-05T02:28:41.485Z,0.00
2022-11-05T02:29:41.425Z,0.00
2022-11-05T02:30:41.364Z,0.00
2022-11-05T02:31:41.287Z,0.00
2022-11-05T02:32:41.242Z,0.00
2022-11-05T02:33:41.154Z,0.00
2022-11-05T02:34:41.115Z,0.00
2022-11-05T02:35:41.028Z,0.00
2022-11-05T02:36:40.970Z,0.00
2022-11-05T02:37:40.919Z,0.00
2022-11-05T02:38:40.847Z,0.00
2022-11-05T02:39:40.781Z,0.00
2022-11-05T02:40:40.726Z,0.00
2022-11-05T02:41:40.650Z,0.00
2022-11-05T02:42:40.598Z,0.00
2022-11-05T02:43:40.492Z,0.00
2022-11-05T02:44:40.444Z,0.00
2022-11-05T02:45:40.369Z,0.00
2022-11-05T02:46:40.316Z,0.00
2022-11-05T02:47:40.256Z,0.00
2022-11-05T02:48:40.206Z,0.00
2022-11-05T02:49:40.146Z,0.00
2022-11-05T02:50:40.048Z,0.00
2022-11-05T02:51:39.972Z,0.00
2022-11-05T02:52:39.940Z,0.00
2022-11-05T02:53:39.864Z,0.00
2022-11-05T02:54:39.787Z,0.00
2022-11-05T02:55:39.727Z,0.00
2022-11-05T02:56:39.637Z,0.00
2022-11-05T02:57:39.589Z,0.00
2022-11-05T02:58:39.516Z,0.00
2022-11-05T02:59:39.504Z,0.00
2022-11-05T03:00:39.391Z,0.00
2022-11-05T03:01:39.429Z,0.00
2022-11-05T03:02:39.356Z,0.00
2022-11-05T03:03:39.176Z,0.00
2022-11-05T03:04:39.124Z,0.00
2022-11-05T03:05:39.048Z,0.00
2022-11-05T03:06:38.978Z,0.00
2022-11-05T03:07:38.915Z,0.00
2022-11-05T03:08:38.856Z,0.00
2022-11-05T03:09:38.782Z,0.00
2022-11-05T03:10:38.717Z,0.00
2022-11-05T03:11:38.660Z,0.00
2022-11-05T03:12:38.578Z,0.00
2022-11-05T03:13:38.516Z,0.00
2022-11-05T03:14:38.503Z,0.00
2022-11-05T03:15:38.393Z,0.00
2022-11-05T03:16:38.314Z,0.00
2022-11-05T03:17:38.278Z,0.00
2022-11-05T03:18:38.212Z,0.00
2022-11-05T03:19:38.129Z,0.00
2022-11-05T03:20:38.048Z,0.00
2022-11-05T03:21:37.983Z,0.00
2022-11-05T03:22:37.913Z,0.00
2022-11-05T03:23:37.845Z,0.00
2022-11-05T03:24:37.787Z,0.00
2022-11-05T03:25:37.723Z,0.00
2022-11-05T03:26:37.669Z,0.00
2022-11-05T03:27:37.597Z,0.00
2022-11-05T03:28:37.543Z,0.00
2022-11-05T03:29:37.467Z,0.00
2022-11-05T03:30:37.389Z,0.00
2022-11-05T03:31:37.606Z,0.00
2022-11-05T03:32:37.365Z,0.00
2022-11-05T03:33:37.187Z,0.00
2022-11-05T03:34:37.136Z,0.00
2022-11-05T03:35:37.055Z,0.00
2022-11-05T03:36:36.996Z,0.00
2022-11-05T03:37:36.923Z,0.00
2022-11-05T03:38:36.881Z,0.00
2022-11-05T03:39:36.798Z,0.00
2022-11-05T03:40:36.728Z,0.00
2022-11-05T03:41:36.676Z,0.00
2022-11-05T03:42:36.599Z,0.00
2022-11-05T03:43:36.592Z,0.00
2022-11-05T03:44:36.460Z,0.00
2022-11-05T03:45:36.398Z,0.00
2022-11-05T03:46:36.355Z,0.00
2022-11-05T03:47:36.289Z,0.00
2022-11-05T03:48:36.270Z,0.00
2022-11-05T03:49:36.249Z,0.00
2022-11-05T03:50:41.070Z,0.00
2022-11-05T03:51:36.012Z,0.00
2022-11-05T03:52:35.929Z,0.00
2022-11-05T03:53:35.880Z,0.00
2022-11-05T03:54:35.829Z,0.00
2022-11-05T03:55:35.760Z,0.00
2022-11-05T03:56:35.668Z,0.00
2022-11-05T03:57:35.600Z,0.00
2022-11-05T03:58:35.544Z,0.00
2022-11-05T03:59:35.476Z,0.00
2022-11-05T04:00:35.432Z,0.00
2022-11-05T04:01:35.500Z,0.00
2022-11-05T04:02:35.436Z,0.00
2022-11-05T04:03:35.213Z,0.00
2022-11-05T04:04:35.151Z,0.00
2022-11-05T04:05:35.070Z,0.00
2022-11-05T04:06:35.012Z,0.00
2022-11-05T04:07:34.941Z,0.00
2022-11-05T04:08:34.873Z,0.00
2022-11-05T04:09:34.866Z,0.00
2022-11-05T04:10:34.755Z,0.00
2022-11-05T04:11:34.679Z,0.00
2022-11-05T04:12:34.607Z,0.00
2022-11-05T04:13:34.551Z,0.00
2022-11-05T04:14:34.472Z,0.00
2022-11-05T04:15:34.436Z,0.00
2022-11-05T04:16:34.341Z,0.00
2022-11-05T04:17:34.295Z,0.00
2022-11-05T04:18:34.214Z,0.00
2022-11-05T04:19:34.229Z,0.00
2022-11-05T04:20:34.074Z,0.00
2022-11-05T04:21:34.011Z,0.00
2022-11-05T04:22:33.947Z,0.00
2022-11-05T04:23:33.882Z,0.00
2022-11-05T04:24:33.822Z,0.00
2022-11-05T04:25:33.756Z,0.00
2022-11-05T04:26:33.674Z,0.00
2022-11-05T04:27:33.617Z,0.00
2022-11-05T04:28:33.560Z,0.00
2022-11-05T04:29:33.486Z,0.00
2022-11-05T04:30:33.428Z,0.00
2022-11-05T04:31:33.350Z,0.00
2022-11-05T04:32:33.282Z,0.00
2022-11-05T04:33:33.228Z,0.00
2022-11-05T04:34:33.149Z,0.00
2022-11-05T04:35:33.097Z,0.00
2022-11-05T04:36:33.019Z,0.00
2022-11-05T04:37:32.990Z,0.00
2022-11-05T04:38:32.913Z,0.00
2022-11-05T04:39:32.815Z,0.00
2022-11-05T04:40:32.760Z,0.00
2022-11-05T04:41:32.713Z,0.00
2022-11-05T04:42:32.618Z,0.00
2022-11-05T04:43:32.552Z,0.00
2022-11-05T04:44:32.490Z,0.00
2022-11-05T04:45:32.424Z,0.00
2022-11-05T04:46:32.357Z,0.00
2022-11-05T04:47:32.287Z,0.00
2022-11-05T04:48:32.234Z,0.00
2022-11-05T04:49:32.166Z,0.00
2022-11-05T04:50:32.087Z,0.00
2022-11-05T04:51:32.122Z,0.00
2022-11-05T04:52:31.975Z,0.00
2022-11-05T04:53:31.939Z,0.00
2022-11-05T04:54:31.846Z,0.00
2022-11-05T04:55:31.751Z,0.00
2022-11-05T04:56:31.744Z,0.00
2022-11-05T04:57:31.634Z,0.00
2022-11-05T04:58:31.569Z,0.00
2022-11-05T04:59:31.532Z,0.00
2022-11-05T05:00:31.774Z,0.00
2022-11-05T05:01:31.507Z,0.00
2022-11-05T05:02:31.320Z,0.00
2022-11-05T05:03:31.303Z,0.00
2022-11-05T05:04:31.187Z,0.00
2022-11-05T05:05:31.098Z,0.00
2022-11-05T05:06:31.035Z,0.00
2022-11-05T05:07:31.049Z,0.00
2022-11-05T05:08:30.907Z,0.00
2022-11-05T05:09:30.833Z,0.00
2022-11-05T05:10:30.772Z,0.00
2022-11-05T05:11:30.713Z,0.00
2022-11-05T05:12:30.635Z,0.00
2022-11-05T05:13:30.561Z,0.00
2022-11-05T05:14:30.506Z,0.00
2022-11-05T05:15:30.438Z,0.00
2022-11-05T05:16:30.371Z,0.00
2022-11-05T05:17:30.310Z,0.00
2022-11-05T05:18:30.226Z,0.00
2022-11-05T05:19:30.169Z,0.00
2022-11-05T05:20:30.104Z,0.00
2022-11-05T05:21:30.039Z,0.00
2022-11-05T05:22:29.984Z,0.00
2022-11-05T05:23:29.917Z,0.00
2022-11-05T05:24:29.829Z,0.00
2022-11-05T05:25:29.763Z,0.00
2022-11-05T05:26:29.707Z,0.00
2022-11-05T05:27:29.624Z,0.00
2022-11-05T05:28:29.561Z,0.00
2022-11-05T05:29:29.514Z,0.00
2022-11-05T05:30:29.432Z,0.00
2022-11-05T05:31:29.392Z,0.00
2022-11-05T05:32:29.308Z,0.00
2022-11-05T05:33:29.229Z,0.00
2022-11-05T05:34:29.162Z,0.00
2022-11-05T05:35:29.126Z,0.00
2022-11-05T05:36:29.042Z,0.00
2022-11-05T05:37:28.973Z,0.00
2022-11-05T05:38:28.896Z,0.00
2022-11-05T05:39:28.835Z,0.00
2022-11-05T05:40:28.786Z,0.00
2022-11-05T05:41:28.709Z,0.00
2022-11-05T05:42:28.627Z,0.00
2022-11-05T05:43:28.610Z,0.00
2022-11-05T05:44:28.513Z,0.00
2022-11-05T05:45:28.441Z,0.00
2022-11-05T05:46:28.370Z,0.00
2022-11-05T05:47:28.314Z,0.00
2022-11-05T05:48:28.336Z,0.00
2022-11-05T05:49:28.176Z,0.00
2022-11-05T05:50:28.106Z,0.00
2022-11-05T05:51:28.035Z,0.00
2022-11-05T05:52:27.971Z,0.00
2022-11-05T05:53:27.896Z,0.00
2022-11-05T05:54:32.668Z,0.00
2022-11-05T05:55:27.763Z,0.00
2022-11-05T05:56:27.709Z,0.00
2022-11-05T05:57:27.629Z,0.00
2022-11-05T05:58:27.565Z,0.00
2022-11-05T05:59:27.499Z,0.00
2022-11-05T06:00:27.445Z,0.00
2022-11-05T06:01:27.500Z,0.00
2022-11-05T06:02:27.464Z,0.00
2022-11-05T06:03:27.234Z,0.00
2022-11-05T06:04:27.171Z,0.00
2022-11-05T06:05:27.107Z,0.00
2022-11-05T06:06:27.039Z,0.00
2022-11-05T06:07:26.977Z,0.00
2022-11-05T06:08:26.938Z,0.00
2022-11-05T06:09:26.838Z,0.00
2022-11-05T06:10:26.937Z,0.00
2022-11-05T06:11:26.695Z,0.00
2022-11-05T06:12:26.639Z,0.00
2022-11-05T06:13:26.569Z,5.63
2022-11-05T06:14:26.508Z,5.63
2022-11-05T06:15:28.474Z,5.63
2022-11-05T06:16:26.358Z,5.63
2022-11-05T06:17:26.348Z,5.63
2022-11-05T06:18:26.247Z,5.63
2022-11-05T06:19:26.167Z,5.63
2022-11-05T06:20:26.115Z,5.63
2022-11-05T06:21:26.032Z,5.63
2022-11-05T06:22:25.990Z,5.63
2022-11-05T06:23:25.893Z,5.63
2022-11-05T06:24:25.826Z,11.25
2022-11-05T06:25:25.778Z,11.25
2022-11-05T06:26:25.708Z,11.25
2022-11-05T06:27:25.630Z,11.25
2022-11-05T06:28:25.558Z,11.25
2022-11-05T06:29:25.492Z,11.25
2022-11-05T06:30:25.437Z,11.25
2022-11-05T06:31:25.374Z,11.25
2022-11-05T06:32:25.297Z,16.88
2022-11-05T06:33:25.230Z,16.88
2022-11-05T06:34:25.178Z,16.88
2022-11-05T06:35:25.093Z,16.88
2022-11-05T06:36:25.033Z,16.88
2022-11-05T06:37:24.991Z,16.88
2022-11-05T06:38:24.900Z,22.50
2022-11-05T06:39:24.834Z,22.50
2022-11-05T06:40:24.760Z,22.50
2022-11-05T06:41:24.701Z,22.50
2022-11-05T06:42:24.626Z,22.50
2022-11-05T06:43:24.585Z,22.50
2022-11-05T06:44:24.502Z,22.50
2022-11-05T06:45:24.460Z,28.13
2022-11-05T06:46:24.360Z,28.13
2022-11-05T06:47:24.300Z,28.13
2022-11-05T06:48:24.266Z,28.13
2022-11-05T06:49:24.164Z,28.13
2022-11-05T06:50:24.113Z,33.75
2022-11-05T06:51:24.038Z,33.75
2022-11-05T06:52:23.964Z,33.75
2022-11-05T06:53:23.906Z,39.38
2022-11-05T06:54:23.845Z,39.38
2022-11-05T06:55:23.768Z,39.38
2022-11-05T06:56:23.693Z,39.38
2022-11-05T06:57:23.627Z,45.00
2022-11-05T06:58:23.583Z,45.00
2022-11-05T06:59:23.497Z,50.63
2022-11-05T07:00:23.450Z,50.63
2022-11-05T07:01:23.482Z,50.63
2022-11-05T07:02:23.354Z,50.63
2022-11-05T07:03:23.251Z,56.25
2022-11-05T07:04:23.203Z,56.25
2022-11-05T07:05:23.095Z,61.88
2022-11-05T07:06:23.074Z,61.88
2022-11-05T07:07:22.983Z,61.88
2022-11-05T07:08:22.912Z,61.88
2022-11-05T07:09:22.867Z,67.50
2022-11-05T07:10:22.774Z,61.88
2022-11-05T07:11:22.725Z,61.88
2022-11-05T07:12:22.655Z,61.88
2022-11-05T07:13:22.581Z,61.88
2022-11-05T07:14:22.504Z,61.88
2022-11-05T07:15:22.455Z,67.50
2022-11-05T07:16:22.368Z,61.88
2022-11-05T07:17:22.303Z,67.50
2022-11-05T07:18:22.259Z,61.88
2022-11-05T07:19:22.167Z,61.88
2022-11-05T07:20:22.102Z,67.50
2022-11-05T07:21:22.046Z,61.88
2022-11-05T07:22:21.988Z,61.88
2022-11-05T07:23:21.938Z,67.50
2022-11-05T07:24:21.844Z,67.50
2022-11-05T07:25:21.784Z,56.25
2022-11-05T07:26:21.720Z,73.13
2022-11-05T07:27:21.651Z,78.75
2022-11-05T07:28:21.604Z,90.00
2022-11-05T07:29:21.514Z,123.75
2022-11-05T07:30:21.472Z,230.63
2022-11-05T07:31:21.381Z,151.88
2022-11-05T07:32:21.311Z,112.50
2022-11-05T07:33:21.278Z,135.00
2022-11-05T07:34:21.185Z,168.75
2022-11-05T07:35:21.107Z,174.38
2022-11-05T07:36:21.058Z,213.75
2022-11-05T07:37:20.990Z,219.38
2022-11-05T07:38:20.914Z,225.00
2022-11-05T07:39:20.864Z,123.75
2022-11-05T07:40:20.792Z,163.13
2022-11-05T07:41:20.726Z,140.63
2022-11-05T07:42:20.646Z,157.50
2022-11-05T07:43:20.580Z,174.38
2022-11-05T07:44:20.551Z,315.00
2022-11-05T07:45:20.457Z,253.13
2022-11-05T07:46:20.401Z,191.25
2022-11-05T07:47:20.339Z,286.88
2022-11-05T07:48:20.252Z,140.63
2022-11-05T07:49:20.192Z,225.00
2022-11-05T07:50:20.152Z,163.13
2022-11-05T07:51:20.058Z,129.38
2022-11-05T07:52:20.005Z,112.50
2022-11-05T07:53:19.951Z,129.38
2022-11-05T07:54:19.906Z,101.25
2022-11-05T07:55:19.804Z,129.38
2022-11-05T07:56:19.780Z,180.00
2022-11-05T07:57:19.679Z,151.88
2022-11-05T07:58:19.613Z,180.00
2022-11-05T07:59:19.552Z,264.38
2022-11-05T08:00:19.496Z,213.75
2022-11-05T08:01:19.696Z,168.75
2022-11-05T08:02:19.582Z,123.75
2022-11-05T08:03:20.300Z,151.88
2022-11-05T08:04:19.232Z,191.25
2022-11-05T08:05:19.153Z,196.88
2022-11-05T08:06:19.113Z,219.38
2022-11-05T08:07:19.020Z,258.75
2022-11-05T08:08:18.961Z,247.50
2022-11-05T08:09:18.886Z,202.50
2022-11-05T08:10:18.821Z,129.38
2022-11-05T08:11:18.782Z,163.13
2022-11-05T08:12:18.738Z,118.13
2022-11-05T08:13:18.638Z,140.63
2022-11-05T08:14:18.607Z,208.13
2022-11-05T08:15:18.503Z,264.38
2022-11-05T08:16:18.441Z,241.88
2022-11-05T08:17:18.658Z,495.00
2022-11-05T08:18:18.304Z,714.38
2022-11-05T08:19:18.249Z,736.88
2022-11-05T08:20:18.172Z,421.88
2022-11-05T08:21:18.158Z,450.00
2022-11-05T08:22:18.049Z,663.75
2022-11-05T08:23:18.001Z,281.25
2022-11-05T08:24:17.935Z,196.88
2022-11-05T08:25:17.858Z,151.88
2022-11-05T08:26:17.797Z,208.13
2022-11-05T08:27:17.743Z,292.50
2022-11-05T08:28:17.676Z,360.00
2022-11-05T08:29:17.606Z,365.63
2022-11-05T08:30:17.557Z,286.88
2022-11-05T08:31:17.482Z,680.63
2022-11-05T08:32:17.449Z,838.13
2022-11-05T08:33:17.417Z,331.88
2022-11-05T08:34:17.309Z,663.75
2022-11-05T08:35:17.220Z,646.88
2022-11-05T08:36:17.152Z,371.25
2022-11-05T08:37:17.114Z,382.50
2022-11-05T08:38:17.044Z,405.00
2022-11-05T08:39:17.253Z,720.00
2022-11-05T08:40:16.901Z,466.88
2022-11-05T08:41:16.862Z,286.88
2022-11-05T08:42:16.791Z,832.50
2022-11-05T08:43:16.720Z,871.88
2022-11-05T08:44:16.668Z,871.88
2022-11-05T08:45:16.598Z,821.25
2022-11-05T08:46:16.559Z,556.88
2022-11-05T08:47:16.477Z,1001.25
2022-11-05T08:48:16.409Z,905.63
2022-11-05T08:49:16.415Z,810.00
2022-11-05T08:50:16.306Z,635.63
2022-11-05T08:51:16.226Z,298.13
2022-11-05T08:52:16.177Z,1153.13
2022-11-05T08:53:16.304Z,680.63
2022-11-05T08:54:16.061Z,613.13
2022-11-05T08:55:15.993Z,1068.75
2022-11-05T08:56:15.919Z,961.88
2022-11-05T08:57:15.889Z,607.50
2022-11-05T08:58:15.817Z,1046.25
2022-11-05T08:59:15.739Z,1023.75
2022-11-05T09:00:15.742Z,731.25
2022-11-05T09:01:15.670Z,545.63
2022-11-05T09:02:15.682Z,939.38
2022-11-05T09:03:15.818Z,905.63
2022-11-05T09:04:15.456Z,652.50
2022-11-05T09:05:15.388Z,939.38
2022-11-05T09:06:15.324Z,928.13
2022-11-05T09:07:15.275Z,871.88
2022-11-05T09:08:15.221Z,860.63
2022-11-05T09:09:15.141Z,866.25
2022-11-05T09:10:15.140Z,838.13
2022-11-05T09:11:15.044Z,838.13
2022-11-05T09:12:14.973Z,804.38
2022-11-05T09:13:19.541Z,765.00
2022-11-05T09:14:14.867Z,753.75
2022-11-05T09:15:14.835Z,736.88
2022-11-05T09:16:14.851Z,697.50
2022-11-05T09:17:14.684Z,686.25
2022-11-05T09:18:14.626Z,686.25
2022-11-05T09:19:14.561Z,669.38
2022-11-05T09:20:14.580Z,658.13
2022-11-05T09:21:14.451Z,652.50
2022-11-05T09:22:14.416Z,641.25
2022-11-05T09:23:14.501Z,630.00
2022-11-05T09:24:14.284Z,635.63
2022-11-05T09:25:14.228Z,624.38
2022-11-05T09:26:14.155Z,618.75
2022-11-05T09:27:14.094Z,607.50
2022-11-05T09:28:16.772Z,601.88
2022-11-05T09:29:14.673Z,607.50
2022-11-05T09:30:13.993Z,596.25
2022-11-05T09:31:13.860Z,585.00
2022-11-05T09:32:13.808Z,585.00
2022-11-05T09:33:14.071Z,579.38
2022-11-05T09:34:13.697Z,579.38
2022-11-05T09:35:13.628Z,573.75
2022-11-05T09:36:13.568Z,568.13
2022-11-05T09:37:13.520Z,556.88
2022-11-05T09:38:13.456Z,568.13
2022-11-05T09:39:13.396Z,562.50
2022-11-05T09:40:13.345Z,551.25
2022-11-05T09:41:13.284Z,545.63
2022-11-05T09:42:13.241Z,540.00
2022-11-05T09:43:13.397Z,540.00
2022-11-05T09:44:13.122Z,534.38
2022-11-05T09:45:13.068Z,534.38
2022-11-05T09:46:13.020Z,528.75
2022-11-05T09:47:12.938Z,528.75
2022-11-05T09:48:12.895Z,523.13
2022-11-05T09:49:12.823Z,517.50
2022-11-05T09:50:12.862Z,517.50
2022-11-05T09:51:12.714Z,517.50
2022-11-05T09:52:12.667Z,511.88
2022-11-05T09:53:12.904Z,517.50
2022-11-05T09:54:12.553Z,517.50
2022-11-05T09:55:12.609Z,528.75
2022-11-05T09:56:12.468Z,534.38
2022-11-05T09:57:12.477Z,545.63
2022-11-05T09:58:12.329Z,573.75
2022-11-05T09:59:12.253Z,596.25
2022-11-05T10:00:12.258Z,624.38
2022-11-05T10:01:12.207Z,725.63
2022-11-05T10:02:12.174Z,843.75
2022-11-05T10:03:12.562Z,950.63
2022-11-05T10:04:11.975Z,1029.38
2022-11-05T10:05:11.960Z,1001.25
2022-11-05T10:06:11.891Z,978.75
2022-11-05T10:07:11.811Z,978.75
2022-11-05T10:08:11.746Z,984.38
2022-11-05T10:09:11.692Z,1068.75
2022-11-05T10:10:11.635Z,1158.75
2022-11-05T10:11:11.670Z,1068.75
2022-11-05T10:12:11.549Z,1080.00
2022-11-05T10:13:11.733Z,1119.38
2022-11-05T10:14:11.445Z,1198.13
2022-11-05T10:15:11.364Z,1203.75
2022-11-05T10:16:11.292Z,1248.75
2022-11-05T10:17:11.258Z,1226.25
2022-11-05T10:18:11.181Z,1344.38
2022-11-05T10:19:11.195Z,1485.00
2022-11-05T10:20:11.134Z,1473.75
2022-11-05T10:21:11.059Z,1738.13
2022-11-05T10:22:10.984Z,1884.38
2022-11-05T10:23:11.281Z,2036.25
2022-11-05T10:24:10.859Z,2126.25
2022-11-05T10:25:10.804Z,1811.25
2022-11-05T10:26:10.840Z,1479.38
2022-11-05T10:27:10.670Z,1271.25
2022-11-05T10:28:10.669Z,1400.63
2022-11-05T10:29:10.564Z,1580.63
2022-11-05T10:30:10.620Z,1440.00
2022-11-05T10:31:10.441Z,1456.88
2022-11-05T10:32:10.389Z,1366.88
2022-11-05T10:33:10.579Z,1125.00
2022-11-05T10:34:10.303Z,1063.13
2022-11-05T10:35:10.235Z,1366.88
2022-11-05T10:36:10.170Z,1659.38
2022-11-05T10:37:10.110Z,1681.88
2022-11-05T10:38:10.054Z,1704.38
2022-11-05T10:39:09.988Z,1794.38
2022-11-05T10:40:10.040Z,1755.00
2022-11-05T10:41:09.875Z,1721.25
2022-11-05T10:42:09.830Z,1648.13
2022-11-05T10:43:10.168Z,1670.63
2022-11-05T10:44:11.514Z,1665.00
2022-11-05T10:45:09.663Z,1603.13
2022-11-05T10:46:09.610Z,1698.75
2022-11-05T10:47:09.646Z,1715.63
2022-11-05T10:48:09.589Z,1749.38
2022-11-05T10:49:09.483Z,1687.50
2022-11-05T10:50:09.440Z,1625.63
2022-11-05T10:51:09.329Z,1653.75
2022-11-05T10:52:09.257Z,1715.63
2022-11-05T10:53:09.519Z,1693.13
2022-11-05T10:54:09.142Z,1597.50
2022-11-05T10:55:09.102Z,1586.25
2022-11-05T10:56:09.041Z,1586.25
2022-11-05T10:57:08.986Z,1693.13
2022-11-05T10:58:08.953Z,1693.13
2022-11-05T10:59:12.160Z,1648.13
2022-11-05T11:00:08.863Z,1665.00
2022-11-05T11:01:08.820Z,1721.25
2022-11-05T11:02:08.818Z,1614.38
2022-11-05T11:03:08.887Z,714.38
2022-11-05T11:04:08.616Z,196.88
2022-11-05T11:05:08.554Z,185.63
2022-11-05T11:06:08.506Z,185.63
2022-11-05T11:07:08.427Z,185.63
2022-11-05T11:08:08.374Z,180.00
2022-11-05T11:09:08.337Z,180.00
2022-11-05T11:10:08.346Z,174.38
2022-11-05T11:11:08.202Z,174.38
2022-11-05T11:12:08.149Z,185.63
2022-11-05T11:13:08.253Z,174.38
2022-11-05T11:14:08.024Z,174.38
2022-11-05T11:15:08.076Z,168.75
2022-11-05T11:16:07.900Z,168.75
2022-11-05T11:17:07.860Z,174.38
2022-11-05T11:18:07.778Z,168.75
2022-11-05T11:19:07.743Z,163.13
2022-11-05T11:20:07.667Z,163.13
2022-11-05T11:21:07.612Z,163.13
2022-11-05T11:22:07.579Z,168.75
2022-11-05T11:23:07.501Z,168.75
2022-11-05T11:24:07.424Z,163.13
2022-11-05T11:25:07.376Z,168.75
2022-11-05T11:26:07.320Z,163.13
2022-11-05T11:27:07.240Z,163.13
2022-11-05T11:28:07.185Z,163.13
2022-11-05T11:29:07.136Z,163.13
2022-11-05T11:30:07.068Z,180.00
2022-11-05T11:31:07.084Z,168.75
2022-11-05T11:32:06.982Z,168.75
2022-11-05T11:33:06.881Z,180.00
2022-11-05T11:34:06.817Z,174.38
2022-11-05T11:35:06.768Z,196.88
2022-11-05T11:36:06.695Z,191.25
2022-11-05T11:37:06.647Z,185.63
2022-11-05T11:38:06.594Z,180.00
2022-11-05T11:39:06.511Z,185.63
2022-11-05T11:40:06.457Z,174.38
2022-11-05T11:41:06.394Z,168.75
2022-11-05T11:42:06.384Z,168.75
2022-11-05T11:43:06.269Z,180.00
2022-11-05T11:44:06.249Z,191.25
2022-11-05T11:45:06.144Z,180.00
2022-11-05T11:46:09.922Z,180.00
2022-11-05T11:47:06.042Z,185.63
2022-11-05T11:48:05.969Z,208.13
2022-11-05T11:49:05.948Z,202.50
2022-11-05T11:50:05.854Z,185.63
2022-11-05T11:51:05.772Z,180.00
2022-11-05T11:52:05.714Z,196.88
2022-11-05T11:53:05.680Z,196.88
2022-11-05T11:54:05.591Z,213.75
2022-11-05T11:55:05.524Z,196.88
2022-11-05T11:56:05.471Z,219.38
2022-11-05T11:57:05.405Z,191.25
2022-11-05T11:58:05.354Z,180.00
2022-11-05T11:59:05.290Z,174.38
2022-11-05T12:00:09.624Z,208.13
2022-11-05T12:01:05.224Z,163.13
2022-11-05T12:02:05.181Z,146.25
2022-11-05T12:03:05.133Z,213.75
2022-11-05T12:04:04.995Z,213.75
2022-11-05T12:05:04.905Z,185.63
2022-11-05T12:06:04.866Z,140.63
2022-11-05T12:07:04.778Z,191.25
2022-11-05T12:08:04.732Z,202.50
2022-11-05T12:09:06.916Z,202.50
2022-11-05T12:10:04.592Z,213.75
2022-11-05T12:11:04.536Z,219.38
2022-11-05T12:12:04.474Z,163.13
2022-11-05T12:13:04.400Z,157.50
2022-11-05T12:14:04.367Z,157.50
2022-11-05T12:15:04.290Z,180.00
2022-11-05T12:16:04.214Z,236.25
2022-11-05T12:17:04.194Z,191.25
2022-11-05T12:18:04.099Z,208.13
2022-11-05T12:19:04.022Z,180.00
2022-11-05T12:20:03.966Z,185.63
2022-11-05T12:21:03.894Z,168.75
2022-11-05T12:22:03.862Z,163.13
2022-11-05T12:23:03.772Z,163.13
2022-11-05T12:24:03.709Z,129.38
2022-11-05T12:25:03.668Z,151.88
2022-11-05T12:26:03.584Z,135.00
2022-11-05T12:27:03.530Z,129.38
2022-11-05T12:28:03.481Z,168.75
2022-11-05T12:29:18.497Z,157.50
2022-11-05T12:30:03.373Z,101.25
2022-11-05T12:31:03.272Z,95.63
2022-11-05T12:32:03.218Z,95.63
2022-11-05T12:33:03.224Z,90.00
2022-11-05T12:34:03.094Z,90.00
2022-11-05T12:35:03.024Z,90.00
2022-11-05T12:36:02.970Z,90.00
2022-11-05T12:37:02.902Z,90.00
2022-11-05T12:38:02.845Z,90.00
2022-11-05T12:39:02.770Z,90.00
2022-11-05T12:40:02.720Z,95.63
2022-11-05T12:41:02.715Z,101.25
2022-11-05T12:42:02.600Z,129.38
2022-11-05T12:43:05.339Z,151.88
2022-11-05T12:44:02.459Z,135.00
2022-11-05T12:45:02.408Z,106.88
2022-11-05T12:46:02.360Z,157.50
2022-11-05T12:47:02.275Z,163.13
2022-11-05T12:48:02.219Z,112.50
2022-11-05T12:49:02.155Z,106.88
2022-11-05T12:50:02.081Z,140.63
2022-11-05T12:51:02.031Z,106.88
2022-11-05T12:52:01.963Z,157.50